sensor_id;sensor_type;location;lat;lon;timestamp;P1;durP1;ratioP1;P2;durP2;ratioP2
5465;SDS011;2755;50.728;7.108;2023-04-01T00:01:33;1.43;;;0.73;;
5465;SDS011;2755;50.728;7.108;2023-04-01T00:03:58;1.83;;;0.90;;
5465;SDS011;2755;50.728;7.108;2023-04-01T00:06:26;1.70;;;0.70;;
5465;SDS011;2755;50.728;7.108;2023-04-01T00:08:52;2.00;;;0.80;;
5465;SDS011;2755;50.728;7.108;2023-04-01T00:11:18;0.90;;;0.57;;
5465;SDS011;2755;50.728;7.108;2023-04-01T00:13:44;1.43;;;0.73;;
5465;SDS011;2755;50.728;7.108;2023-04-01T00:16:10;2.20;;;0.70;;
5465;SDS011;2755;50.728;7.108;2023-04-01T00:18:36;1.17;;;0.77;;
5465;SDS011;2755;50.728;7.108;2023-04-01T00:21:02;2.00;;;0.60;;
5465;SDS011;2755;50.728;7.108;2023-04-01T00:23:27;7.90;;;1.27;;
5465;SDS011;2755;50.728;7.108;2023-04-01T00:25:53;2.10;;;0.63;;
5465;SDS011;2755;50.728;7.108;2023-04-01T00:28:19;2.00;;;0.63;;
5465;SDS011;2755;50.728;7.108;2023-04-01T00:30:47;3.20;;;0.90;;
5465;SDS011;2755;50.728;7.108;2023-04-01T00:33:13;1.67;;;0.70;;
5465;SDS011;2755;50.728;7.108;2023-04-01T00:35:40;0.90;;;0.60;;
5465;SDS011;2755;50.728;7.108;2023-04-01T00:38:06;0.80;;;0.50;;
5465;SDS011;2755;50.728;7.108;2023-04-01T00:40:34;1.63;;;0.80;;
5465;SDS011;2755;50.728;7.108;2023-04-01T00:43:08;2.40;;;0.90;;
5465;SDS011;2755;50.728;7.108;2023-04-01T00:45:40;0.80;;;0.67;;
5465;SDS011;2755;50.728;7.108;2023-04-01T00:48:09;1.73;;;0.60;;
5465;SDS011;2755;50.728;7.108;2023-04-01T00:50:38;8.03;;;1.00;;
5465;SDS011;2755;50.728;7.108;2023-04-01T00:53:07;1.33;;;0.60;;
5465;SDS011;2755;50.728;7.108;2023-04-01T00:55:35;1.53;;;0.77;;
5465;SDS011;2755;50.728;7.108;2023-04-01T00:58:05;1.90;;;0.80;;
5465;SDS011;2755;50.728;7.108;2023-04-01T01:00:34;1.70;;;0.90;;
5465;SDS011;2755;50.728;7.108;2023-04-01T01:03:00;1.30;;;0.70;;
5465;SDS011;2755;50.728;7.108;2023-04-01T01:05:50;1.80;;;0.67;;
5465;SDS011;2755;50.728;7.108;2023-04-01T01:10:50;1.20;;;0.60;;
5465;SDS011;2755;50.728;7.108;2023-04-01T01:16:11;0.90;;;0.60;;
5465;SDS011;2755;50.728;7.108;2023-04-01T01:24:30;0.70;;;0.50;;
5465;SDS011;2755;50.728;7.108;2023-04-01T01:27:25;3.23;;;0.73;;
5465;SDS011;2755;50.728;7.108;2023-04-01T01:29:59;1.30;;;0.60;;
5465;SDS011;2755;50.728;7.108;2023-04-01T01:32:37;2.43;;;0.70;;
5465;SDS011;2755;50.728;7.108;2023-04-01T01:35:37;1.83;;;0.90;;
5465;SDS011;2755;50.728;7.108;2023-04-01T01:38:27;2.93;;;0.90;;
5465;SDS011;2755;50.728;7.108;2023-04-01T01:40:56;1.57;;;0.60;;
5465;SDS011;2755;50.728;7.108;2023-04-01T01:43:27;1.30;;;0.50;;
5465;SDS011;2755;50.728;7.108;2023-04-01T01:45:58;1.03;;;0.53;;
5465;SDS011;2755;50.728;7.108;2023-04-01T01:48:27;0.70;;;0.60;;
5465;SDS011;2755;50.728;7.108;2023-04-01T01:50:54;1.67;;;0.50;;
5465;SDS011;2755;50.728;7.108;2023-04-01T01:53:20;1.07;;;0.50;;
5465;SDS011;2755;50.728;7.108;2023-04-01T01:55:46;1.93;;;0.60;;
5465;SDS011;2755;50.728;7.108;2023-04-01T01:58:22;1.20;;;0.60;;
5465;SDS011;2755;50.728;7.108;2023-04-01T02:00:50;1.43;;;0.60;;
5465;SDS011;2755;50.728;7.108;2023-04-01T02:03:27;0.73;;;0.50;;
5465;SDS011;2755;50.728;7.108;2023-04-01T02:05:56;0.80;;;0.60;;
5465;SDS011;2755;50.728;7.108;2023-04-01T02:08:26;0.80;;;0.60;;
5465;SDS011;2755;50.728;7.108;2023-04-01T02:11:18;1.77;;;0.70;;
5465;SDS011;2755;50.728;7.108;2023-04-01T02:16:13;0.90;;;0.60;;
5465;SDS011;2755;50.728;7.108;2023-04-01T02:18:43;1.43;;;0.70;;
5465;SDS011;2755;50.728;7.108;2023-04-01T02:21:10;2.10;;;0.70;;
5465;SDS011;2755;50.728;7.108;2023-04-01T02:23:37;5.00;;;0.60;;
5465;SDS011;2755;50.728;7.108;2023-04-01T02:26:05;2.40;;;0.50;;
5465;SDS011;2755;50.728;7.108;2023-04-01T02:28:33;1.20;;;0.57;;
5465;SDS011;2755;50.728;7.108;2023-04-01T02:31:02;1.67;;;0.50;;
5465;SDS011;2755;50.728;7.108;2023-04-01T02:33:28;1.43;;;0.70;;
5465;SDS011;2755;50.728;7.108;2023-04-01T02:35:55;3.17;;;0.60;;
5465;SDS011;2755;50.728;7.108;2023-04-01T02:38:22;0.90;;;0.60;;
5465;SDS011;2755;50.728;7.108;2023-04-01T02:40:49;1.27;;;0.53;;
5465;SDS011;2755;50.728;7.108;2023-04-01T02:43:21;2.73;;;0.70;;
5465;SDS011;2755;50.728;7.108;2023-04-01T02:45:46;0.80;;;0.60;;
5465;SDS011;2755;50.728;7.108;2023-04-01T02:48:12;1.53;;;0.83;;
5465;SDS011;2755;50.728;7.108;2023-04-01T02:50:39;0.80;;;0.60;;
5465;SDS011;2755;50.728;7.108;2023-04-01T02:53:05;0.73;;;0.53;;
5465;SDS011;2755;50.728;7.108;2023-04-01T02:55:31;1.90;;;0.80;;
5465;SDS011;2755;50.728;7.108;2023-04-01T02:57:57;0.73;;;0.60;;
5465;SDS011;2755;50.728;7.108;2023-04-01T03:00:23;1.43;;;0.60;;
5465;SDS011;2755;50.728;7.108;2023-04-01T03:02:49;2.30;;;0.80;;
5465;SDS011;2755;50.728;7.108;2023-04-01T03:05:15;1.20;;;0.60;;
5465;SDS011;2755;50.728;7.108;2023-04-01T03:07:40;1.43;;;0.60;;
5465;SDS011;2755;50.728;7.108;2023-04-01T03:10:06;0.80;;;0.70;;
5465;SDS011;2755;50.728;7.108;2023-04-01T03:12:32;3.13;;;0.70;;
5465;SDS011;2755;50.728;7.108;2023-04-01T03:15:01;0.80;;;0.60;;
5465;SDS011;2755;50.728;7.108;2023-04-01T03:17:27;1.33;;;0.70;;
5465;SDS011;2755;50.728;7.108;2023-04-01T03:19:52;0.90;;;0.60;;
5465;SDS011;2755;50.728;7.108;2023-04-01T03:22:18;1.67;;;0.80;;
5465;SDS011;2755;50.728;7.108;2023-04-01T03:24:46;2.60;;;0.70;;
5465;SDS011;2755;50.728;7.108;2023-04-01T03:27:14;0.90;;;0.80;;
5465;SDS011;2755;50.728;7.108;2023-04-01T03:29:40;0.70;;;0.60;;
5465;SDS011;2755;50.728;7.108;2023-04-01T03:32:06;2.63;;;0.97;;
5465;SDS011;2755;50.728;7.108;2023-04-01T03:34:32;1.20;;;0.70;;
5465;SDS011;2755;50.728;7.108;2023-04-01T03:36:57;1.13;;;0.80;;
5465;SDS011;2755;50.728;7.108;2023-04-01T03:39:23;2.07;;;0.80;;
5465;SDS011;2755;50.728;7.108;2023-04-01T03:41:50;1.10;;;0.60;;
5465;SDS011;2755;50.728;7.108;2023-04-01T03:44:16;1.03;;;0.60;;
5465;SDS011;2755;50.728;7.108;2023-04-01T03:46:41;0.80;;;0.80;;
5465;SDS011;2755;50.728;7.108;2023-04-01T03:49:07;0.60;;;0.60;;
5465;SDS011;2755;50.728;7.108;2023-04-01T03:51:37;0.70;;;0.60;;
5465;SDS011;2755;50.728;7.108;2023-04-01T03:54:03;0.60;;;0.57;;
5465;SDS011;2755;50.728;7.108;2023-04-01T03:56:30;1.20;;;0.70;;
5465;SDS011;2755;50.728;7.108;2023-04-01T03:58:55;1.57;;;0.60;;
5465;SDS011;2755;50.728;7.108;2023-04-01T04:01:21;0.80;;;0.70;;
5465;SDS011;2755;50.728;7.108;2023-04-01T04:03:48;1.20;;;0.70;;
5465;SDS011;2755;50.728;7.108;2023-04-01T04:06:14;1.00;;;0.70;;
5465;SDS011;2755;50.728;7.108;2023-04-01T04:08:41;0.90;;;0.60;;
5465;SDS011;2755;50.728;7.108;2023-04-01T04:11:07;0.60;;;0.50;;
5465;SDS011;2755;50.728;7.108;2023-04-01T04:13:33;0.70;;;0.70;;
5465;SDS011;2755;50.728;7.108;2023-04-01T04:15:59;1.13;;;0.60;;
5465;SDS011;2755;50.728;7.108;2023-04-01T04:18:24;3.10;;;0.70;;
5465;SDS011;2755;50.728;7.108;2023-04-01T04:20:50;0.80;;;0.57;;
5465;SDS011;2755;50.728;7.108;2023-04-01T04:23:16;1.10;;;0.50;;
5465;SDS011;2755;50.728;7.108;2023-04-01T04:25:53;0.90;;;0.50;;
5465;SDS011;2755;50.728;7.108;2023-04-01T04:28:27;0.83;;;0.60;;
5465;SDS011;2755;50.728;7.108;2023-04-01T04:30:53;0.70;;;0.50;;
5465;SDS011;2755;50.728;7.108;2023-04-01T04:33:19;1.87;;;0.50;;
5465;SDS011;2755;50.728;7.108;2023-04-01T04:35:45;0.80;;;0.60;;
5465;SDS011;2755;50.728;7.108;2023-04-01T04:38:11;4.50;;;0.70;;
5465;SDS011;2755;50.728;7.108;2023-04-01T04:40:37;0.70;;;0.50;;
5465;SDS011;2755;50.728;7.108;2023-04-01T04:43:03;0.60;;;0.50;;
5465;SDS011;2755;50.728;7.108;2023-04-01T04:45:29;0.60;;;0.50;;
5465;SDS011;2755;50.728;7.108;2023-04-01T04:47:55;0.90;;;0.50;;
5465;SDS011;2755;50.728;7.108;2023-04-01T04:50:21;0.60;;;0.50;;
5465;SDS011;2755;50.728;7.108;2023-04-01T04:52:47;0.80;;;0.60;;
5465;SDS011;2755;50.728;7.108;2023-04-01T04:55:12;0.60;;;0.50;;
5465;SDS011;2755;50.728;7.108;2023-04-01T04:57:39;0.60;;;0.50;;
5465;SDS011;2755;50.728;7.108;2023-04-01T05:00:05;0.70;;;0.57;;
5465;SDS011;2755;50.728;7.108;2023-04-01T05:02:32;0.60;;;0.50;;
5465;SDS011;2755;50.728;7.108;2023-04-01T05:04:58;0.60;;;0.40;;
5465;SDS011;2755;50.728;7.108;2023-04-01T05:07:23;0.90;;;0.40;;
5465;SDS011;2755;50.728;7.108;2023-04-01T05:09:49;0.60;;;0.50;;
5465;SDS011;2755;50.728;7.108;2023-04-01T05:12:15;1.43;;;0.60;;
5465;SDS011;2755;50.728;7.108;2023-04-01T05:14:40;0.60;;;0.50;;
5465;SDS011;2755;50.728;7.108;2023-04-01T05:17:10;0.60;;;0.60;;
5465;SDS011;2755;50.728;7.108;2023-04-01T05:19:37;0.60;;;0.50;;
5465;SDS011;2755;50.728;7.108;2023-04-01T05:22:03;1.00;;;0.50;;
5465;SDS011;2755;50.728;7.108;2023-04-01T05:24:29;0.70;;;0.50;;
5465;SDS011;2755;50.728;7.108;2023-04-01T05:26:55;1.63;;;0.50;;
5465;SDS011;2755;50.728;7.108;2023-04-01T05:29:22;0.70;;;0.50;;
5465;SDS011;2755;50.728;7.108;2023-04-01T05:31:48;2.00;;;0.60;;
5465;SDS011;2755;50.728;7.108;2023-04-01T05:34:13;1.30;;;0.60;;
5465;SDS011;2755;50.728;7.108;2023-04-01T05:36:39;0.60;;;0.50;;
5465;SDS011;2755;50.728;7.108;2023-04-01T05:39:06;1.93;;;0.73;;
5465;SDS011;2755;50.728;7.108;2023-04-01T05:41:34;0.80;;;0.60;;
5465;SDS011;2755;50.728;7.108;2023-04-01T05:44:00;0.60;;;0.50;;
5465;SDS011;2755;50.728;7.108;2023-04-01T05:46:26;0.70;;;0.60;;
5465;SDS011;2755;50.728;7.108;2023-04-01T05:48:51;0.70;;;0.50;;
5465;SDS011;2755;50.728;7.108;2023-04-01T05:51:17;0.60;;;0.50;;
5465;SDS011;2755;50.728;7.108;2023-04-01T05:53:42;0.70;;;0.70;;
5465;SDS011;2755;50.728;7.108;2023-04-01T05:56:08;0.60;;;0.60;;
5465;SDS011;2755;50.728;7.108;2023-04-01T05:58:37;0.63;;;0.50;;
5465;SDS011;2755;50.728;7.108;2023-04-01T06:01:04;0.63;;;0.53;;
5465;SDS011;2755;50.728;7.108;2023-04-01T06:03:32;0.60;;;0.50;;
5465;SDS011;2755;50.728;7.108;2023-04-01T06:05:57;0.60;;;0.50;;
5465;SDS011;2755;50.728;7.108;2023-04-01T06:08:23;0.97;;;0.80;;
5465;SDS011;2755;50.728;7.108;2023-04-01T06:13:45;1.10;;;0.73;;
5465;SDS011;2755;50.728;7.108;2023-04-01T06:19:51;2.60;;;0.60;;
5465;SDS011;2755;50.728;7.108;2023-04-01T06:28:00;0.70;;;0.60;;
5465;SDS011;2755;50.728;7.108;2023-04-01T06:31:07;0.80;;;0.70;;
5465;SDS011;2755;50.728;7.108;2023-04-01T06:44:45;1.87;;;1.10;;
5465;SDS011;2755;50.728;7.108;2023-04-01T06:55:20;2.10;;;0.80;;
5465;SDS011;2755;50.728;7.108;2023-04-01T06:58:00;2.80;;;0.70;;
5465;SDS011;2755;50.728;7.108;2023-04-01T07:00:37;0.80;;;0.80;;
5465;SDS011;2755;50.728;7.108;2023-04-01T07:03:22;0.90;;;0.63;;
5465;SDS011;2755;50.728;7.108;2023-04-01T07:05:56;1.90;;;0.80;;
5465;SDS011;2755;50.728;7.108;2023-04-01T07:08:27;0.70;;;0.60;;
5465;SDS011;2755;50.728;7.108;2023-04-01T07:11:04;1.37;;;0.60;;
5465;SDS011;2755;50.728;7.108;2023-04-01T07:16:54;0.80;;;0.80;;
5465;SDS011;2755;50.728;7.108;2023-04-01T07:19:29;2.20;;;0.70;;
5465;SDS011;2755;50.728;7.108;2023-04-01T07:22:03;0.80;;;0.70;;
5465;SDS011;2755;50.728;7.108;2023-04-01T07:24:41;1.30;;;0.60;;
5465;SDS011;2755;50.728;7.108;2023-04-01T07:27:11;0.70;;;0.60;;
5465;SDS011;2755;50.728;7.108;2023-04-01T07:29:38;3.33;;;0.90;;
5465;SDS011;2755;50.728;7.108;2023-04-01T07:35:15;3.53;;;0.53;;
5465;SDS011;2755;50.728;7.108;2023-04-01T07:53:58;2.40;;;0.80;;
5465;SDS011;2755;50.728;7.108;2023-04-01T07:59:25;1.70;;;0.50;;
5465;SDS011;2755;50.728;7.108;2023-04-01T08:07:18;8.00;;;0.80;;
5465;SDS011;2755;50.728;7.108;2023-04-01T08:13:05;0.97;;;0.73;;
5465;SDS011;2755;50.728;7.108;2023-04-01T08:15:40;1.27;;;0.53;;
5465;SDS011;2755;50.728;7.108;2023-04-01T08:21:02;0.70;;;0.50;;
5465;SDS011;2755;50.728;7.108;2023-04-01T08:23:33;2.20;;;0.70;;
5465;SDS011;2755;50.728;7.108;2023-04-01T08:28:57;0.80;;;0.60;;
5465;SDS011;2755;50.728;7.108;2023-04-01T08:31:50;0.80;;;0.60;;
5465;SDS011;2755;50.728;7.108;2023-04-01T08:34:23;0.90;;;0.70;;
5465;SDS011;2755;50.728;7.108;2023-04-01T08:37:04;0.70;;;0.60;;
5465;SDS011;2755;50.728;7.108;2023-04-01T08:39:44;1.10;;;0.77;;
5465;SDS011;2755;50.728;7.108;2023-04-01T08:42:38;1.30;;;0.50;;
5465;SDS011;2755;50.728;7.108;2023-04-01T08:59:48;0.70;;;0.70;;
5465;SDS011;2755;50.728;7.108;2023-04-01T09:10:32;1.33;;;0.70;;
5465;SDS011;2755;50.728;7.108;2023-04-01T09:13:08;0.90;;;0.90;;
5465;SDS011;2755;50.728;7.108;2023-04-01T09:15:59;1.07;;;0.60;;
5465;SDS011;2755;50.728;7.108;2023-04-01T09:21:43;0.70;;;0.50;;
5465;SDS011;2755;50.728;7.108;2023-04-01T09:27:26;1.43;;;0.60;;
5465;SDS011;2755;50.728;7.108;2023-04-01T09:35:37;0.90;;;0.60;;
5465;SDS011;2755;50.728;7.108;2023-04-01T09:41:30;0.80;;;0.50;;
5465;SDS011;2755;50.728;7.108;2023-04-01T09:44:30;0.80;;;0.80;;
5465;SDS011;2755;50.728;7.108;2023-04-01T09:47:04;0.73;;;0.53;;
5465;SDS011;2755;50.728;7.108;2023-04-01T09:55:12;1.33;;;0.67;;
5465;SDS011;2755;50.728;7.108;2023-04-01T10:03:53;0.60;;;0.50;;
5465;SDS011;2755;50.728;7.108;2023-04-01T10:09:27;0.60;;;0.60;;
5465;SDS011;2755;50.728;7.108;2023-04-01T10:17:58;0.80;;;0.60;;
5465;SDS011;2755;50.728;7.108;2023-04-01T10:26:37;0.70;;;0.53;;
5465;SDS011;2755;50.728;7.108;2023-04-01T10:38:31;0.60;;;0.50;;
5465;SDS011;2755;50.728;7.108;2023-04-01T10:41:15;0.70;;;0.50;;
5465;SDS011;2755;50.728;7.108;2023-04-01T10:46:45;0.70;;;0.60;;
5465;SDS011;2755;50.728;7.108;2023-04-01T11:25:46;0.70;;;0.50;;
5465;SDS011;2755;50.728;7.108;2023-04-01T11:31:29;0.93;;;0.50;;
5465;SDS011;2755;50.728;7.108;2023-04-01T11:45:10;1.10;;;0.63;;
5465;SDS011;2755;50.728;7.108;2023-04-01T12:03:54;0.70;;;0.50;;
5465;SDS011;2755;50.728;7.108;2023-04-01T12:06:41;1.60;;;0.70;;
5465;SDS011;2755;50.728;7.108;2023-04-01T12:12:29;1.10;;;1.00;;
5465;SDS011;2755;50.728;7.108;2023-04-01T12:15:02;0.60;;;0.50;;
5465;SDS011;2755;50.728;7.108;2023-04-01T12:31:59;0.70;;;0.50;;
5465;SDS011;2755;50.728;7.108;2023-04-01T12:34:45;1.17;;;0.80;;
5465;SDS011;2755;50.728;7.108;2023-04-01T12:44:13;0.60;;;0.50;;
5465;SDS011;2755;50.728;7.108;2023-04-01T13:00:55;2.30;;;0.60;;
5465;SDS011;2755;50.728;7.108;2023-04-01T13:06:44;0.60;;;0.40;;
5465;SDS011;2755;50.728;7.108;2023-04-01T13:15:36;2.20;;;0.70;;
5465;SDS011;2755;50.728;7.108;2023-04-01T13:20:34;0.80;;;0.60;;
5465;SDS011;2755;50.728;7.108;2023-04-01T13:23:06;0.80;;;0.60;;
5465;SDS011;2755;50.728;7.108;2023-04-01T13:28:32;0.83;;;0.60;;
5465;SDS011;2755;50.728;7.108;2023-04-01T13:34:24;0.80;;;0.60;;
5465;SDS011;2755;50.728;7.108;2023-04-01T13:37:32;0.90;;;0.50;;
5465;SDS011;2755;50.728;7.108;2023-04-01T13:43:15;1.10;;;0.60;;
5465;SDS011;2755;50.728;7.108;2023-04-01T13:53:46;0.60;;;0.50;;
5465;SDS011;2755;50.728;7.108;2023-04-01T13:56:37;0.80;;;0.50;;
5465;SDS011;2755;50.728;7.108;2023-04-01T13:59:22;3.13;;;0.60;;
5465;SDS011;2755;50.728;7.108;2023-04-01T14:04:47;1.30;;;0.77;;
5465;SDS011;2755;50.728;7.108;2023-04-01T14:10:31;0.77;;;0.77;;
5465;SDS011;2755;50.728;7.108;2023-04-01T14:13:02;0.70;;;0.53;;
5465;SDS011;2755;50.728;7.108;2023-04-01T14:30:20;0.60;;;0.50;;
5465;SDS011;2755;50.728;7.108;2023-04-01T14:45:52;1.30;;;0.57;;
5465;SDS011;2755;50.728;7.108;2023-04-01T14:48:39;1.07;;;0.60;;
5465;SDS011;2755;50.728;7.108;2023-04-01T14:54:30;3.23;;;0.67;;
5465;SDS011;2755;50.728;7.108;2023-04-01T14:57:05;0.80;;;0.50;;
5465;SDS011;2755;50.728;7.108;2023-04-01T14:59:35;1.83;;;0.50;;
5465;SDS011;2755;50.728;7.108;2023-04-01T15:10:41;1.00;;;0.50;;
5465;SDS011;2755;50.728;7.108;2023-04-01T15:18:50;0.73;;;0.50;;
5465;SDS011;2755;50.728;7.108;2023-04-01T15:21:44;0.80;;;0.70;;
5465;SDS011;2755;50.728;7.108;2023-04-01T15:24:46;0.77;;;0.63;;
5465;SDS011;2755;50.728;7.108;2023-04-01T15:27:21;0.70;;;0.60;;
5465;SDS011;2755;50.728;7.108;2023-04-01T15:41:16;1.07;;;0.50;;
5465;SDS011;2755;50.728;7.108;2023-04-01T15:43:50;0.70;;;0.70;;
5465;SDS011;2755;50.728;7.108;2023-04-01T15:49:14;0.67;;;0.60;;
5465;SDS011;2755;50.728;7.108;2023-04-01T15:51:47;2.13;;;0.63;;
5465;SDS011;2755;50.728;7.108;2023-04-01T15:57:33;1.07;;;0.80;;
5465;SDS011;2755;50.728;7.108;2023-04-01T16:03:24;1.10;;;1.00;;
5465;SDS011;2755;50.728;7.108;2023-04-01T16:19:56;1.27;;;0.60;;
5465;SDS011;2755;50.728;7.108;2023-04-01T16:22:59;0.90;;;0.73;;
5465;SDS011;2755;50.728;7.108;2023-04-01T16:25:33;1.20;;;0.77;;
5465;SDS011;2755;50.728;7.108;2023-04-01T16:33:51;2.90;;;0.67;;
5465;SDS011;2755;50.728;7.108;2023-04-01T16:36:24;2.33;;;0.70;;
5465;SDS011;2755;50.728;7.108;2023-04-01T16:45:15;0.83;;;0.57;;
5465;SDS011;2755;50.728;7.108;2023-04-01T16:47:58;0.70;;;0.60;;
5465;SDS011;2755;50.728;7.108;2023-04-01T16:50:42;1.13;;;0.87;;
5465;SDS011;2755;50.728;7.108;2023-04-01T16:53:30;0.90;;;0.70;;
5465;SDS011;2755;50.728;7.108;2023-04-01T16:56:11;1.03;;;0.77;;
5465;SDS011;2755;50.728;7.108;2023-04-01T17:01:31;1.43;;;0.63;;
5465;SDS011;2755;50.728;7.108;2023-04-01T17:04:07;1.00;;;0.70;;
5465;SDS011;2755;50.728;7.108;2023-04-01T17:07:05;0.80;;;0.73;;
5465;SDS011;2755;50.728;7.108;2023-04-01T17:26:45;0.73;;;0.73;;
5465;SDS011;2755;50.728;7.108;2023-04-01T17:29:22;1.20;;;0.90;;
5465;SDS011;2755;50.728;7.108;2023-04-01T17:34:52;1.10;;;1.00;;
5465;SDS011;2755;50.728;7.108;2023-04-01T17:40:21;1.23;;;1.00;;
5465;SDS011;2755;50.728;7.108;2023-04-01T17:42:59;2.20;;;1.00;;
5465;SDS011;2755;50.728;7.108;2023-04-01T17:45:49;1.60;;;0.90;;
5465;SDS011;2755;50.728;7.108;2023-04-01T17:59:39;1.10;;;0.97;;
5465;SDS011;2755;50.728;7.108;2023-04-01T18:12:38;0.90;;;0.90;;
5465;SDS011;2755;50.728;7.108;2023-04-01T18:18:37;1.83;;;1.23;;
5465;SDS011;2755;50.728;7.108;2023-04-01T18:23:44;1.50;;;1.40;;
5465;SDS011;2755;50.728;7.108;2023-04-01T18:26:18;1.47;;;1.20;;
5465;SDS011;2755;50.728;7.108;2023-04-01T18:31:23;1.40;;;1.23;;
5465;SDS011;2755;50.728;7.108;2023-04-01T18:42:13;2.57;;;1.80;;
5465;SDS011;2755;50.728;7.108;2023-04-01T18:44:55;1.93;;;1.33;;
5465;SDS011;2755;50.728;7.108;2023-04-01T18:47:38;3.20;;;1.70;;
5465;SDS011;2755;50.728;7.108;2023-04-01T18:50:21;2.13;;;1.77;;
5465;SDS011;2755;50.728;7.108;2023-04-01T18:55:51;2.13;;;1.60;;
5465;SDS011;2755;50.728;7.108;2023-04-01T18:58:22;1.10;;;1.00;;
5465;SDS011;2755;50.728;7.108;2023-04-01T19:01:26;2.40;;;1.50;;
5465;SDS011;2755;50.728;7.108;2023-04-01T19:10:40;1.53;;;1.30;;
5465;SDS011;2755;50.728;7.108;2023-04-01T19:13:24;2.00;;;1.50;;
5465;SDS011;2755;50.728;7.108;2023-04-01T19:19:05;1.70;;;1.60;;
5465;SDS011;2755;50.728;7.108;2023-04-01T19:33:03;1.90;;;1.60;;
5465;SDS011;2755;50.728;7.108;2023-04-01T19:39:30;2.43;;;2.23;;
5465;SDS011;2755;50.728;7.108;2023-04-01T19:53:40;2.20;;;2.00;;
5465;SDS011;2755;50.728;7.108;2023-04-01T19:56:17;2.40;;;2.20;;
5465;SDS011;2755;50.728;7.108;2023-04-01T20:04:01;2.23;;;2.10;;
5465;SDS011;2755;50.728;7.108;2023-04-01T20:06:50;2.03;;;1.83;;
5465;SDS011;2755;50.728;7.108;2023-04-01T20:10:29;2.03;;;1.83;;
5465;SDS011;2755;50.728;7.108;2023-04-01T20:13:21;2.07;;;1.70;;
5465;SDS011;2755;50.728;7.108;2023-04-01T20:15:35;2.43;;;2.23;;
5465;SDS011;2755;50.728;7.108;2023-04-01T20:18:19;2.23;;;1.67;;
5465;SDS011;2755;50.728;7.108;2023-04-01T20:21:03;2.07;;;1.90;;
5465;SDS011;2755;50.728;7.108;2023-04-01T20:26:09;3.47;;;2.33;;
5465;SDS011;2755;50.728;7.108;2023-04-01T20:28:43;2.67;;;2.00;;
5465;SDS011;2755;50.728;7.108;2023-04-01T20:42:05;2.27;;;1.70;;
5465;SDS011;2755;50.728;7.108;2023-04-01T20:50:23;1.60;;;1.50;;
5465;SDS011;2755;50.728;7.108;2023-04-01T20:53:11;2.00;;;1.80;;
5465;SDS011;2755;50.728;7.108;2023-04-01T20:58:48;2.00;;;1.47;;
5465;SDS011;2755;50.728;7.108;2023-04-01T21:29:32;5.60;;;1.57;;
5465;SDS011;2755;50.728;7.108;2023-04-01T21:32:20;2.40;;;1.10;;
5465;SDS011;2755;50.728;7.108;2023-04-01T21:35:08;0.93;;;0.93;;
5465;SDS011;2755;50.728;7.108;2023-04-01T21:38:05;2.20;;;1.30;;
5465;SDS011;2755;50.728;7.108;2023-04-01T21:43:20;1.30;;;1.20;;
5465;SDS011;2755;50.728;7.108;2023-04-01T21:48:47;1.33;;;1.23;;
5465;SDS011;2755;50.728;7.108;2023-04-01T21:51:50;2.13;;;0.97;;
5465;SDS011;2755;50.728;7.108;2023-04-01T21:54:42;1.23;;;1.13;;
5465;SDS011;2755;50.728;7.108;2023-04-01T22:05:37;2.13;;;1.27;;
5465;SDS011;2755;50.728;7.108;2023-04-01T22:08:27;1.67;;;1.30;;
5465;SDS011;2755;50.728;7.108;2023-04-01T22:21:58;1.17;;;1.03;;
5465;SDS011;2755;50.728;7.108;2023-04-01T22:33:14;1.13;;;1.03;;
5465;SDS011;2755;50.728;7.108;2023-04-01T22:36:00;2.27;;;1.27;;
5465;SDS011;2755;50.728;7.108;2023-04-01T22:38:55;1.30;;;1.20;;
5465;SDS011;2755;50.728;7.108;2023-04-01T22:41:34;1.70;;;1.30;;
5465;SDS011;2755;50.728;7.108;2023-04-01T22:44:33;2.17;;;1.30;;
5465;SDS011;2755;50.728;7.108;2023-04-01T22:47:43;1.27;;;1.13;;
5465;SDS011;2755;50.728;7.108;2023-04-01T22:50:22;1.97;;;1.00;;
5465;SDS011;2755;50.728;7.108;2023-04-01T22:52:55;1.40;;;1.30;;
5465;SDS011;2755;50.728;7.108;2023-04-01T22:55:32;1.30;;;1.20;;
5465;SDS011;2755;50.728;7.108;2023-04-01T22:58:04;0.90;;;0.90;;
5465;SDS011;2755;50.728;7.108;2023-04-01T23:06:05;1.07;;;0.93;;
5465;SDS011;2755;50.728;7.108;2023-04-01T23:14:48;1.10;;;1.00;;
5465;SDS011;2755;50.728;7.108;2023-04-01T23:23:01;1.30;;;1.20;;
5465;SDS011;2755;50.728;7.108;2023-04-01T23:28:33;1.43;;;1.33;;
5465;SDS011;2755;50.728;7.108;2023-04-01T23:31:01;1.20;;;1.10;;
5465;SDS011;2755;50.728;7.108;2023-04-01T23:33:28;1.53;;;1.43;;
5465;SDS011;2755;50.728;7.108;2023-04-01T23:35:56;1.20;;;1.10;;
5465;SDS011;2755;50.728;7.108;2023-04-01T23:38:35;1.60;;;1.37;;
5465;SDS011;2755;50.728;7.108;2023-04-01T23:41:03;2.67;;;1.60;;
5465;SDS011;2755;50.728;7.108;2023-04-01T23:43:31;1.37;;;1.27;;
5465;SDS011;2755;50.728;7.108;2023-04-01T23:46:00;2.53;;;1.67;;
5465;SDS011;2755;50.728;7.108;2023-04-01T23:48:32;1.83;;;1.70;;
5465;SDS011;2755;50.728;7.108;2023-04-01T23:51:02;1.70;;;1.60;;
5465;SDS011;2755;50.728;7.108;2023-04-01T23:53:29;2.50;;;1.70;;
5465;SDS011;2755;50.728;7.108;2023-04-01T23:55:58;1.57;;;1.47;;
5465;SDS011;2755;50.728;7.108;2023-04-01T23:58:27;2.50;;;1.50;;
